sensor_id;sensor_type;location;lat;lon;timestamp;temperature;humidity
65559;DHT22;52203;51.998;5.140;2024-02-14T00:01:48;13.62;118.99
65559;DHT22;52203;51.998;5.140;2024-02-14T00:04:14;13.63;118.99
65559;DHT22;52203;51.998;5.140;2024-02-14T00:06:40;13.68;118.99
65559;DHT22;52203;51.998;5.140;2024-02-14T00:09:06;13.65;118.99
65559;DHT22;52203;51.998;5.140;2024-02-14T00:11:32;13.63;118.99
65559;DHT22;52203;51.998;5.140;2024-02-14T00:13:58;13.62;118.99
65559;DHT22;52203;51.998;5.140;2024-02-14T00:16:25;13.56;118.99
65559;DHT22;52203;51.998;5.140;2024-02-14T00:18:50;13.60;118.99
65559;DHT22;52203;51.998;5.140;2024-02-14T00:21:16;13.60;118.99
65559;DHT22;52203;51.998;5.140;2024-02-14T00:23:47;13.53;118.99
65559;DHT22;52203;51.998;5.140;2024-02-14T00:26:13;13.58;118.99
65559;DHT22;52203;51.998;5.140;2024-02-14T00:28:46;13.60;118.99
65559;DHT22;52203;51.998;5.140;2024-02-14T00:31:11;13.56;118.99
65559;DHT22;52203;51.998;5.140;2024-02-14T00:33:37;13.52;118.99
65559;DHT22;52203;51.998;5.140;2024-02-14T00:36:02;13.54;118.99
65559;DHT22;52203;51.998;5.140;2024-02-14T00:38:28;13.56;118.99
65559;DHT22;52203;51.998;5.140;2024-02-14T00:40:53;13.53;118.99
65559;DHT22;52203;51.998;5.140;2024-02-14T00:43:19;13.52;118.99
65559;DHT22;52203;51.998;5.140;2024-02-14T00:45:44;13.53;118.99
65559;DHT22;52203;51.998;5.140;2024-02-14T00:48:12;13.51;118.99
65559;DHT22;52203;51.998;5.140;2024-02-14T00:50:37;13.53;118.99
65559;DHT22;52203;51.998;5.140;2024-02-14T00:53:03;13.50;118.99
65559;DHT22;52203;51.998;5.140;2024-02-14T00:55:28;13.54;118.99
65559;DHT22;52203;51.998;5.140;2024-02-14T00:57:53;13.47;118.99
65559;DHT22;52203;51.998;5.140;2024-02-14T01:00:19;13.51;118.99
65559;DHT22;52203;51.998;5.140;2024-02-14T01:02:44;13.46;118.99
65559;DHT22;52203;51.998;5.140;2024-02-14T01:05:10;13.49;118.99
65559;DHT22;52203;51.998;5.140;2024-02-14T01:07:35;13.46;118.99
65559;DHT22;52203;51.998;5.140;2024-02-14T01:10:01;13.43;118.99
65559;DHT22;52203;51.998;5.140;2024-02-14T01:12:26;13.45;118.99
65559;DHT22;52203;51.998;5.140;2024-02-14T01:14:52;13.45;118.99
65559;DHT22;52203;51.998;5.140;2024-02-14T01:17:17;13.43;118.99
65559;DHT22;52203;51.998;5.140;2024-02-14T01:19:42;13.43;118.99
65559;DHT22;52203;51.998;5.140;2024-02-14T01:22:09;13.40;118.99
65559;DHT22;52203;51.998;5.140;2024-02-14T01:24:34;13.43;118.99
65559;DHT22;52203;51.998;5.140;2024-02-14T01:26:59;13.43;118.99
65559;DHT22;52203;51.998;5.140;2024-02-14T01:29:25;13.41;118.99
65559;DHT22;52203;51.998;5.140;2024-02-14T01:31:50;13.45;118.99
65559;DHT22;52203;51.998;5.140;2024-02-14T01:34:16;13.38;118.99
65559;DHT22;52203;51.998;5.140;2024-02-14T01:36:41;13.40;118.99
65559;DHT22;52203;51.998;5.140;2024-02-14T01:39:07;13.39;118.99
65559;DHT22;52203;51.998;5.140;2024-02-14T01:41:36;13.40;118.99
65559;DHT22;52203;51.998;5.140;2024-02-14T01:44:02;13.37;118.99
65559;DHT22;52203;51.998;5.140;2024-02-14T01:46:28;13.37;118.99
65559;DHT22;52203;51.998;5.140;2024-02-14T01:48:53;13.33;118.99
65559;DHT22;52203;51.998;5.140;2024-02-14T01:51:19;13.38;118.99
65559;DHT22;52203;51.998;5.140;2024-02-14T01:53:45;13.35;118.99
65559;DHT22;52203;51.998;5.140;2024-02-14T01:56:10;13.35;118.99
65559;DHT22;52203;51.998;5.140;2024-02-14T01:58:37;13.34;118.99
65559;DHT22;52203;51.998;5.140;2024-02-14T02:01:04;13.31;118.99
65559;DHT22;52203;51.998;5.140;2024-02-14T02:03:29;13.24;118.99
65559;DHT22;52203;51.998;5.140;2024-02-14T02:05:58;13.23;118.99
65559;DHT22;52203;51.998;5.140;2024-02-14T02:08:24;13.19;118.99
65559;DHT22;52203;51.998;5.140;2024-02-14T02:10:49;13.22;118.99
65559;DHT22;52203;51.998;5.140;2024-02-14T02:13:15;13.27;118.99
65559;DHT22;52203;51.998;5.140;2024-02-14T02:15:41;13.20;118.99
65559;DHT22;52203;51.998;5.140;2024-02-14T02:18:09;13.24;118.99
65559;DHT22;52203;51.998;5.140;2024-02-14T02:20:35;13.24;118.99
65559;DHT22;52203;51.998;5.140;2024-02-14T02:23:00;13.20;118.99
65559;DHT22;52203;51.998;5.140;2024-02-14T02:25:25;13.16;118.99
65559;DHT22;52203;51.998;5.140;2024-02-14T02:27:54;13.23;118.99
65559;DHT22;52203;51.998;5.140;2024-02-14T02:30:23;13.23;118.99
65559;DHT22;52203;51.998;5.140;2024-02-14T02:32:49;13.20;118.99
65559;DHT22;52203;51.998;5.140;2024-02-14T02:35:18;13.18;118.99
65559;DHT22;52203;51.998;5.140;2024-02-14T02:37:46;13.19;118.99
65559;DHT22;52203;51.998;5.140;2024-02-14T02:40:13;13.18;118.99
65559;DHT22;52203;51.998;5.140;2024-02-14T02:42:40;13.23;118.99
65559;DHT22;52203;51.998;5.140;2024-02-14T02:45:06;13.19;118.99
65559;DHT22;52203;51.998;5.140;2024-02-14T02:47:32;13.22;118.99
65559;DHT22;52203;51.998;5.140;2024-02-14T02:49:58;13.21;118.99
65559;DHT22;52203;51.998;5.140;2024-02-14T02:52:26;13.22;118.99
65559;DHT22;52203;51.998;5.140;2024-02-14T02:54:53;13.22;118.99
65559;DHT22;52203;51.998;5.140;2024-02-14T02:57:19;13.18;118.99
65559;DHT22;52203;51.998;5.140;2024-02-14T02:59:44;13.18;118.99
65559;DHT22;52203;51.998;5.140;2024-02-14T03:02:12;13.20;118.99
65559;DHT22;52203;51.998;5.140;2024-02-14T03:04:39;13.20;118.99
65559;DHT22;52203;51.998;5.140;2024-02-14T03:07:05;13.24;118.99
65559;DHT22;52203;51.998;5.140;2024-02-14T03:09:32;13.21;118.99
65559;DHT22;52203;51.998;5.140;2024-02-14T03:12:04;13.21;118.99
65559;DHT22;52203;51.998;5.140;2024-02-14T03:14:33;13.25;118.99
65559;DHT22;52203;51.998;5.140;2024-02-14T03:17:00;13.26;118.99
65559;DHT22;52203;51.998;5.140;2024-02-14T03:19:26;13.25;118.99
65559;DHT22;52203;51.998;5.140;2024-02-14T03:21:55;13.26;118.99
65559;DHT22;52203;51.998;5.140;2024-02-14T03:24:21;13.25;118.99
65559;DHT22;52203;51.998;5.140;2024-02-14T03:26:46;13.18;118.99
65559;DHT22;52203;51.998;5.140;2024-02-14T03:29:12;13.22;118.99
65559;DHT22;52203;51.998;5.140;2024-02-14T03:31:37;13.22;118.99
65559;DHT22;52203;51.998;5.140;2024-02-14T03:34:03;13.17;118.99
65559;DHT22;52203;51.998;5.140;2024-02-14T03:36:28;13.22;118.99
65559;DHT22;52203;51.998;5.140;2024-02-14T03:38:55;13.19;118.99
65559;DHT22;52203;51.998;5.140;2024-02-14T03:41:21;13.23;118.99
65559;DHT22;52203;51.998;5.140;2024-02-14T03:43:46;13.20;118.99
65559;DHT22;52203;51.998;5.140;2024-02-14T03:46:12;13.24;118.99
65559;DHT22;52203;51.998;5.140;2024-02-14T03:48:38;13.25;118.99
65559;DHT22;52203;51.998;5.140;2024-02-14T03:51:06;13.25;118.99
65559;DHT22;52203;51.998;5.140;2024-02-14T03:53:31;13.25;118.99
65559;DHT22;52203;51.998;5.140;2024-02-14T03:55:58;13.23;118.99
65559;DHT22;52203;51.998;5.140;2024-02-14T03:58:23;13.21;118.99
65559;DHT22;52203;51.998;5.140;2024-02-14T04:00:49;13.25;118.99
65559;DHT22;52203;51.998;5.140;2024-02-14T04:03:16;13.23;118.99
65559;DHT22;52203;51.998;5.140;2024-02-14T04:05:41;13.25;118.99
65559;DHT22;52203;51.998;5.140;2024-02-14T04:08:07;13.29;118.99
65559;DHT22;52203;51.998;5.140;2024-02-14T04:10:35;13.27;118.99
65559;DHT22;52203;51.998;5.140;2024-02-14T04:13:01;13.35;118.99
65559;DHT22;52203;51.998;5.140;2024-02-14T04:15:26;13.31;118.99
65559;DHT22;52203;51.998;5.140;2024-02-14T04:17:51;13.34;118.99
65559;DHT22;52203;51.998;5.140;2024-02-14T04:20:17;13.32;118.99
65559;DHT22;52203;51.998;5.140;2024-02-14T04:22:42;13.34;118.99
65559;DHT22;52203;51.998;5.140;2024-02-14T04:25:08;13.39;118.99
65559;DHT22;52203;51.998;5.140;2024-02-14T04:27:34;13.44;118.99
65559;DHT22;52203;51.998;5.140;2024-02-14T04:30:00;13.47;118.99
65559;DHT22;52203;51.998;5.140;2024-02-14T04:32:29;13.40;118.99
65559;DHT22;52203;51.998;5.140;2024-02-14T04:34:54;13.51;118.99
65559;DHT22;52203;51.998;5.140;2024-02-14T04:37:20;13.51;118.99
65559;DHT22;52203;51.998;5.140;2024-02-14T04:39:45;13.40;118.99
65559;DHT22;52203;51.998;5.140;2024-02-14T04:42:11;13.46;118.99
65559;DHT22;52203;51.998;5.140;2024-02-14T04:44:37;13.55;118.99
65559;DHT22;52203;51.998;5.140;2024-02-14T04:47:02;13.50;118.99
65559;DHT22;52203;51.998;5.140;2024-02-14T04:49:28;13.53;118.99
65559;DHT22;52203;51.998;5.140;2024-02-14T04:51:57;13.58;118.99
65559;DHT22;52203;51.998;5.140;2024-02-14T04:54:22;13.65;118.99
65559;DHT22;52203;51.998;5.140;2024-02-14T04:56:48;13.73;118.99
65559;DHT22;52203;51.998;5.140;2024-02-14T04:59:13;13.46;118.99
65559;DHT22;52203;51.998;5.140;2024-02-14T05:01:39;13.46;118.99
65559;DHT22;52203;51.998;5.140;2024-02-14T05:04:05;13.41;118.99
65559;DHT22;52203;51.998;5.140;2024-02-14T05:06:32;13.46;118.99
65559;DHT22;52203;51.998;5.140;2024-02-14T05:08:57;13.44;118.99
65559;DHT22;52203;51.998;5.140;2024-02-14T05:11:23;13.48;118.99
65559;DHT22;52203;51.998;5.140;2024-02-14T05:13:48;13.49;118.99
65559;DHT22;52203;51.998;5.140;2024-02-14T05:16:17;13.55;118.99
65559;DHT22;52203;51.998;5.140;2024-02-14T05:18:42;13.56;118.99
65559;DHT22;52203;51.998;5.140;2024-02-14T05:21:08;13.55;118.99
65559;DHT22;52203;51.998;5.140;2024-02-14T05:23:34;13.61;118.99
65559;DHT22;52203;51.998;5.140;2024-02-14T05:26:01;13.63;118.99
65559;DHT22;52203;51.998;5.140;2024-02-14T05:28:27;13.63;118.99
65559;DHT22;52203;51.998;5.140;2024-02-14T05:30:53;13.60;118.99
65559;DHT22;52203;51.998;5.140;2024-02-14T05:33:19;13.65;118.99
65559;DHT22;52203;51.998;5.140;2024-02-14T05:35:47;13.67;118.99
65559;DHT22;52203;51.998;5.140;2024-02-14T05:38:13;13.47;118.99
65559;DHT22;52203;51.998;5.140;2024-02-14T05:40:39;13.52;118.99
65559;DHT22;52203;51.998;5.140;2024-02-14T05:43:05;13.47;118.99
65559;DHT22;52203;51.998;5.140;2024-02-14T05:45:34;13.52;118.99
65559;DHT22;52203;51.998;5.140;2024-02-14T05:48:00;13.55;118.99
65559;DHT22;52203;51.998;5.140;2024-02-14T05:50:25;13.59;118.99
65559;DHT22;52203;51.998;5.140;2024-02-14T05:52:51;13.63;118.99
65559;DHT22;52203;51.998;5.140;2024-02-14T05:55:16;13.61;118.99
65559;DHT22;52203;51.998;5.140;2024-02-14T05:57:41;13.68;118.99
65559;DHT22;52203;51.998;5.140;2024-02-14T06:00:07;13.59;118.99
65559;DHT22;52203;51.998;5.140;2024-02-14T06:02:35;13.55;118.99
65559;DHT22;52203;51.998;5.140;2024-02-14T06:05:00;13.61;118.99
65559;DHT22;52203;51.998;5.140;2024-02-14T06:07:25;13.62;118.99
65559;DHT22;52203;51.998;5.140;2024-02-14T06:09:51;13.58;118.99
65559;DHT22;52203;51.998;5.140;2024-02-14T06:12:16;13.60;118.99
65559;DHT22;52203;51.998;5.140;2024-02-14T06:14:42;13.53;118.99
65559;DHT22;52203;51.998;5.140;2024-02-14T06:17:07;13.47;118.99
65559;DHT22;52203;51.998;5.140;2024-02-14T06:19:33;13.48;118.99
65559;DHT22;52203;51.998;5.140;2024-02-14T06:22:00;13.44;118.99
65559;DHT22;52203;51.998;5.140;2024-02-14T06:24:25;13.36;118.99
65559;DHT22;52203;51.998;5.140;2024-02-14T06:26:51;13.41;118.99
65559;DHT22;52203;51.998;5.140;2024-02-14T06:29:16;13.44;118.99
65559;DHT22;52203;51.998;5.140;2024-02-14T06:31:41;13.39;118.99
65559;DHT22;52203;51.998;5.140;2024-02-14T06:34:07;13.38;118.99
65559;DHT22;52203;51.998;5.140;2024-02-14T06:36:33;13.38;118.99
65559;DHT22;52203;51.998;5.140;2024-02-14T06:38:58;13.35;118.99
65559;DHT22;52203;51.998;5.140;2024-02-14T06:41:24;13.39;118.99
65559;DHT22;52203;51.998;5.140;2024-02-14T06:43:49;13.35;118.99
65559;DHT22;52203;51.998;5.140;2024-02-14T06:46:15;13.35;118.99
65559;DHT22;52203;51.998;5.140;2024-02-14T06:48:40;13.34;118.99
65559;DHT22;52203;51.998;5.140;2024-02-14T06:51:06;13.39;118.99
65559;DHT22;52203;51.998;5.140;2024-02-14T06:53:32;13.37;118.99
65559;DHT22;52203;51.998;5.140;2024-02-14T06:55:57;13.37;118.99
65559;DHT22;52203;51.998;5.140;2024-02-14T06:58:22;13.37;118.99
65559;DHT22;52203;51.998;5.140;2024-02-14T07:00:48;13.35;118.99
65559;DHT22;52203;51.998;5.140;2024-02-14T07:03:15;13.36;118.99
65559;DHT22;52203;51.998;5.140;2024-02-14T07:05:40;13.35;118.99
65559;DHT22;52203;51.998;5.140;2024-02-14T07:08:07;13.36;118.99
65559;DHT22;52203;51.998;5.140;2024-02-14T07:10:32;13.37;118.99
65559;DHT22;52203;51.998;5.140;2024-02-14T07:12:58;13.38;118.99
65559;DHT22;52203;51.998;5.140;2024-02-14T07:15:23;13.40;118.99
65559;DHT22;52203;51.998;5.140;2024-02-14T07:17:53;13.40;118.99
65559;DHT22;52203;51.998;5.140;2024-02-14T07:20:18;13.39;118.99
65559;DHT22;52203;51.998;5.140;2024-02-14T07:22:46;13.46;118.99
65559;DHT22;52203;51.998;5.140;2024-02-14T07:25:13;13.47;118.99
65559;DHT22;52203;51.998;5.140;2024-02-14T07:27:39;13.54;118.99
65559;DHT22;52203;51.998;5.140;2024-02-14T07:30:04;13.58;118.99
65559;DHT22;52203;51.998;5.140;2024-02-14T07:32:30;13.49;118.99
65559;DHT22;52203;51.998;5.140;2024-02-14T07:34:56;13.52;118.99
65559;DHT22;52203;51.998;5.140;2024-02-14T07:37:30;13.51;118.99
65559;DHT22;52203;51.998;5.140;2024-02-14T07:39:56;13.54;118.99
65559;DHT22;52203;51.998;5.140;2024-02-14T07:42:21;13.55;118.99
65559;DHT22;52203;51.998;5.140;2024-02-14T07:44:47;13.55;118.99
65559;DHT22;52203;51.998;5.140;2024-02-14T07:47:12;13.55;118.99
65559;DHT22;52203;51.998;5.140;2024-02-14T07:49:38;13.58;118.99
65559;DHT22;52203;51.998;5.140;2024-02-14T07:52:03;13.71;118.99
65559;DHT22;52203;51.998;5.140;2024-02-14T07:54:29;13.79;118.99
65559;DHT22;52203;51.998;5.140;2024-02-14T07:56:54;13.86;118.99
65559;DHT22;52203;51.998;5.140;2024-02-14T07:59:20;13.88;118.99
65559;DHT22;52203;51.998;5.140;2024-02-14T08:01:45;13.90;118.99
65559;DHT22;52203;51.998;5.140;2024-02-14T08:04:11;13.94;118.99
65559;DHT22;52203;51.998;5.140;2024-02-14T08:06:36;13.88;118.99
65559;DHT22;52203;51.998;5.140;2024-02-14T08:09:02;13.83;118.99
65559;DHT22;52203;51.998;5.140;2024-02-14T08:11:31;13.91;118.99
65559;DHT22;52203;51.998;5.140;2024-02-14T08:13:59;13.69;118.99
65559;DHT22;52203;51.998;5.140;2024-02-14T08:16:25;13.47;118.99
65559;DHT22;52203;51.998;5.140;2024-02-14T08:18:50;13.31;118.99
65559;DHT22;52203;51.998;5.140;2024-02-14T08:21:18;13.20;118.99
65559;DHT22;52203;51.998;5.140;2024-02-14T08:23:43;13.11;118.99
65559;DHT22;52203;51.998;5.140;2024-02-14T08:26:09;13.09;118.99
65559;DHT22;52203;51.998;5.140;2024-02-14T08:28:38;13.07;118.99
65559;DHT22;52203;51.998;5.140;2024-02-14T08:31:09;13.07;118.99
65559;DHT22;52203;51.998;5.140;2024-02-14T08:33:37;13.06;118.99
65559;DHT22;52203;51.998;5.140;2024-02-14T08:36:05;13.08;118.99
65559;DHT22;52203;51.998;5.140;2024-02-14T08:38:32;13.04;118.99
65559;DHT22;52203;51.998;5.140;2024-02-14T08:40:57;13.17;118.99
65559;DHT22;52203;51.998;5.140;2024-02-14T08:43:23;13.09;118.99
65559;DHT22;52203;51.998;5.140;2024-02-14T08:45:51;13.06;118.99
65559;DHT22;52203;51.998;5.140;2024-02-14T08:48:17;13.07;118.99
65559;DHT22;52203;51.998;5.140;2024-02-14T08:50:42;13.07;118.99
65559;DHT22;52203;51.998;5.140;2024-02-14T08:53:07;13.08;118.99
65559;DHT22;52203;51.998;5.140;2024-02-14T08:55:33;13.02;118.99
65559;DHT22;52203;51.998;5.140;2024-02-14T08:58:00;12.97;118.99
65559;DHT22;52203;51.998;5.140;2024-02-14T09:00:25;12.95;118.99
65559;DHT22;52203;51.998;5.140;2024-02-14T09:02:51;13.01;118.99
65559;DHT22;52203;51.998;5.140;2024-02-14T09:05:18;13.07;118.99
65559;DHT22;52203;51.998;5.140;2024-02-14T09:07:44;13.12;118.99
65559;DHT22;52203;51.998;5.140;2024-02-14T09:10:09;13.17;118.99
65559;DHT22;52203;51.998;5.140;2024-02-14T09:12:38;13.08;118.99
65559;DHT22;52203;51.998;5.140;2024-02-14T09:15:03;13.10;118.99
65559;DHT22;52203;51.998;5.140;2024-02-14T09:17:30;13.09;118.99
65559;DHT22;52203;51.998;5.140;2024-02-14T09:19:55;13.10;118.99
65559;DHT22;52203;51.998;5.140;2024-02-14T09:22:20;13.11;118.99
65559;DHT22;52203;51.998;5.140;2024-02-14T09:24:50;13.11;118.99
65559;DHT22;52203;51.998;5.140;2024-02-14T09:27:15;13.12;118.99
65559;DHT22;52203;51.998;5.140;2024-02-14T09:29:41;13.11;118.99
65559;DHT22;52203;51.998;5.140;2024-02-14T09:32:06;13.10;118.99
65559;DHT22;52203;51.998;5.140;2024-02-14T09:34:31;13.14;118.99
65559;DHT22;52203;51.998;5.140;2024-02-14T09:36:57;13.10;118.99
65559;DHT22;52203;51.998;5.140;2024-02-14T09:39:24;13.14;118.99
65559;DHT22;52203;51.998;5.140;2024-02-14T09:41:52;13.12;118.99
65559;DHT22;52203;51.998;5.140;2024-02-14T09:44:20;13.18;118.99
65559;DHT22;52203;51.998;5.140;2024-02-14T09:46:46;13.25;118.99
65559;DHT22;52203;51.998;5.140;2024-02-14T09:49:12;13.22;118.99
65559;DHT22;52203;51.998;5.140;2024-02-14T09:51:39;13.25;118.99
65559;DHT22;52203;51.998;5.140;2024-02-14T09:54:04;13.26;118.99
65559;DHT22;52203;51.998;5.140;2024-02-14T09:56:33;13.34;118.99
65559;DHT22;52203;51.998;5.140;2024-02-14T09:58:59;13.27;118.99
65559;DHT22;52203;51.998;5.140;2024-02-14T10:01:27;13.27;118.99
65559;DHT22;52203;51.998;5.140;2024-02-14T10:03:54;13.25;118.99
65559;DHT22;52203;51.998;5.140;2024-02-14T10:06:23;13.20;118.99
65559;DHT22;52203;51.998;5.140;2024-02-14T10:08:51;13.22;118.99
65559;DHT22;52203;51.998;5.140;2024-02-14T10:11:19;13.24;118.99
65559;DHT22;52203;51.998;5.140;2024-02-14T10:13:48;13.23;118.99
65559;DHT22;52203;51.998;5.140;2024-02-14T10:16:15;13.18;118.99
65559;DHT22;52203;51.998;5.140;2024-02-14T10:18:41;13.15;118.99
65559;DHT22;52203;51.998;5.140;2024-02-14T10:21:08;13.16;118.99
65559;DHT22;52203;51.998;5.140;2024-02-14T10:23:33;13.21;118.99
65559;DHT22;52203;51.998;5.140;2024-02-14T10:25:59;13.30;118.99
65559;DHT22;52203;51.998;5.140;2024-02-14T10:28:24;13.27;118.99
65559;DHT22;52203;51.998;5.140;2024-02-14T10:30:50;13.29;118.99
65559;DHT22;52203;51.998;5.140;2024-02-14T10:33:16;13.36;118.99
65559;DHT22;52203;51.998;5.140;2024-02-14T10:35:42;13.68;118.99
65559;DHT22;52203;51.998;5.140;2024-02-14T10:38:07;13.38;118.99
65559;DHT22;52203;51.998;5.140;2024-02-14T10:40:35;13.45;118.99
65559;DHT22;52203;51.998;5.140;2024-02-14T10:43:01;13.58;118.99
65559;DHT22;52203;51.998;5.140;2024-02-14T10:45:26;13.63;118.99
65559;DHT22;52203;51.998;5.140;2024-02-14T10:47:52;13.71;118.99
65559;DHT22;52203;51.998;5.140;2024-02-14T10:50:18;13.47;118.99
65559;DHT22;52203;51.998;5.140;2024-02-14T10:52:46;13.49;118.99
65559;DHT22;52203;51.998;5.140;2024-02-14T10:55:13;13.50;118.99
65559;DHT22;52203;51.998;5.140;2024-02-14T10:57:40;13.39;118.99
65559;DHT22;52203;51.998;5.140;2024-02-14T11:00:08;13.24;118.99
65559;DHT22;52203;51.998;5.140;2024-02-14T11:02:34;13.16;118.99
65559;DHT22;52203;51.998;5.140;2024-02-14T11:05:01;13.16;118.99
65559;DHT22;52203;51.998;5.140;2024-02-14T11:07:32;13.15;118.99
65559;DHT22;52203;51.998;5.140;2024-02-14T11:10:16;13.15;118.99
65559;DHT22;52203;51.998;5.140;2024-02-14T11:12:42;13.15;118.99
65559;DHT22;52203;51.998;5.140;2024-02-14T11:17:43;13.24;118.99
65559;DHT22;52203;51.998;5.140;2024-02-14T11:20:50;13.32;118.99
65559;DHT22;52203;51.998;5.140;2024-02-14T11:22:57;13.33;118.99
65559;DHT22;52203;51.998;5.140;2024-02-14T11:25:28;13.37;118.99
65559;DHT22;52203;51.998;5.140;2024-02-14T11:27:54;13.38;118.99
65559;DHT22;52203;51.998;5.140;2024-02-14T11:30:28;13.51;118.99
65559;DHT22;52203;51.998;5.140;2024-02-14T11:32:54;13.48;118.99
65559;DHT22;52203;51.998;5.140;2024-02-14T11:35:19;13.38;118.99
65559;DHT22;52203;51.998;5.140;2024-02-14T11:37:45;13.34;118.99
65559;DHT22;52203;51.998;5.140;2024-02-14T11:40:18;13.32;118.99
65559;DHT22;52203;51.998;5.140;2024-02-14T11:42:44;13.30;118.99
65559;DHT22;52203;51.998;5.140;2024-02-14T11:45:13;13.37;118.99
65559;DHT22;52203;51.998;5.140;2024-02-14T11:47:38;13.48;118.99
65559;DHT22;52203;51.998;5.140;2024-02-14T11:50:04;13.44;118.99
65559;DHT22;52203;51.998;5.140;2024-02-14T11:52:29;13.40;118.99
65559;DHT22;52203;51.998;5.140;2024-02-14T11:54:55;13.47;118.99
65559;DHT22;52203;51.998;5.140;2024-02-14T11:57:22;13.52;118.99
65559;DHT22;52203;51.998;5.140;2024-02-14T11:59:51;13.45;118.99
65559;DHT22;52203;51.998;5.140;2024-02-14T12:02:18;13.47;118.99
65559;DHT22;52203;51.998;5.140;2024-02-14T12:04:45;13.61;118.99
65559;DHT22;52203;51.998;5.140;2024-02-14T12:07:10;13.51;118.99
65559;DHT22;52203;51.998;5.140;2024-02-14T12:09:36;13.39;118.99
65559;DHT22;52203;51.998;5.140;2024-02-14T12:12:04;13.34;118.99
65559;DHT22;52203;51.998;5.140;2024-02-14T12:14:30;13.31;118.99
65559;DHT22;52203;51.998;5.140;2024-02-14T12:17:00;13.30;118.99
65559;DHT22;52203;51.998;5.140;2024-02-14T12:19:28;13.25;118.99
65559;DHT22;52203;51.998;5.140;2024-02-14T12:21:54;13.27;118.99
65559;DHT22;52203;51.998;5.140;2024-02-14T12:24:21;13.31;118.99
65559;DHT22;52203;51.998;5.140;2024-02-14T12:26:49;13.29;118.99
65559;DHT22;52203;51.998;5.140;2024-02-14T12:29:18;13.29;118.99
65559;DHT22;52203;51.998;5.140;2024-02-14T12:31:43;13.30;118.99
65559;DHT22;52203;51.998;5.140;2024-02-14T12:34:10;13.32;118.99
65559;DHT22;52203;51.998;5.140;2024-02-14T12:36:35;13.34;118.99
65559;DHT22;52203;51.998;5.140;2024-02-14T12:39:01;13.37;118.99
65559;DHT22;52203;51.998;5.140;2024-02-14T12:41:27;13.36;118.99
65559;DHT22;52203;51.998;5.140;2024-02-14T12:43:55;13.38;118.99
65559;DHT22;52203;51.998;5.140;2024-02-14T12:46:21;13.36;118.99
65559;DHT22;52203;51.998;5.140;2024-02-14T12:48:47;13.41;118.99
65559;DHT22;52203;51.998;5.140;2024-02-14T12:51:13;13.46;118.99
65559;DHT22;52203;51.998;5.140;2024-02-14T12:53:39;13.49;118.99
65559;DHT22;52203;51.998;5.140;2024-02-14T12:56:04;13.55;118.99
65559;DHT22;52203;51.998;5.140;2024-02-14T12:58:31;13.65;118.99
65559;DHT22;52203;51.998;5.140;2024-02-14T13:00:56;13.77;118.99
65559;DHT22;52203;51.998;5.140;2024-02-14T13:03:22;13.49;118.99
65559;DHT22;52203;51.998;5.140;2024-02-14T13:05:48;13.43;118.99
65559;DHT22;52203;51.998;5.140;2024-02-14T13:08:13;13.53;118.99
65559;DHT22;52203;51.998;5.140;2024-02-14T13:10:39;13.53;118.99
65559;DHT22;52203;51.998;5.140;2024-02-14T13:13:04;13.60;118.99
65559;DHT22;52203;51.998;5.140;2024-02-14T13:15:30;13.61;118.99
65559;DHT22;52203;51.998;5.140;2024-02-14T13:17:55;13.58;118.99
65559;DHT22;52203;51.998;5.140;2024-02-14T13:20:26;13.51;118.99
65559;DHT22;52203;51.998;5.140;2024-02-14T13:22:51;13.41;118.99
65559;DHT22;52203;51.998;5.140;2024-02-14T13:25:17;13.41;118.99
65559;DHT22;52203;51.998;5.140;2024-02-14T13:27:45;13.36;118.99
65559;DHT22;52203;51.998;5.140;2024-02-14T13:30:10;13.46;118.99
65559;DHT22;52203;51.998;5.140;2024-02-14T13:32:36;13.40;118.99
65559;DHT22;52203;51.998;5.140;2024-02-14T13:35:02;13.31;118.99
65559;DHT22;52203;51.998;5.140;2024-02-14T13:37:31;13.25;118.99
65559;DHT22;52203;51.998;5.140;2024-02-14T13:39:57;13.23;118.99
65559;DHT22;52203;51.998;5.140;2024-02-14T13:42:22;13.43;118.99
65559;DHT22;52203;51.998;5.140;2024-02-14T13:44:48;13.38;118.99
65559;DHT22;52203;51.998;5.140;2024-02-14T13:47:13;13.40;118.99
65559;DHT22;52203;51.998;5.140;2024-02-14T13:49:39;13.40;118.99
65559;DHT22;52203;51.998;5.140;2024-02-14T13:52:05;13.40;118.99
65559;DHT22;52203;51.998;5.140;2024-02-14T13:54:31;13.37;118.99
65559;DHT22;52203;51.998;5.140;2024-02-14T13:56:56;13.34;118.99
65559;DHT22;52203;51.998;5.140;2024-02-14T13:59:22;13.40;118.99
65559;DHT22;52203;51.998;5.140;2024-02-14T14:01:47;13.44;118.99
65559;DHT22;52203;51.998;5.140;2024-02-14T14:04:13;13.54;118.99
65559;DHT22;52203;51.998;5.140;2024-02-14T14:06:38;13.51;118.99
65559;DHT22;52203;51.998;5.140;2024-02-14T14:09:04;13.43;118.99
65559;DHT22;52203;51.998;5.140;2024-02-14T14:11:30;13.40;118.99
65559;DHT22;52203;51.998;5.140;2024-02-14T14:13:55;13.38;118.99
65559;DHT22;52203;51.998;5.140;2024-02-14T14:16:21;13.41;118.99
65559;DHT22;52203;51.998;5.140;2024-02-14T14:18:48;13.44;118.99
65559;DHT22;52203;51.998;5.140;2024-02-14T14:21:13;13.34;118.99
65559;DHT22;52203;51.998;5.140;2024-02-14T14:23:40;13.37;118.99
65559;DHT22;52203;51.998;5.140;2024-02-14T14:26:05;13.44;118.99
65559;DHT22;52203;51.998;5.140;2024-02-14T14:28:31;13.37;118.99
65559;DHT22;52203;51.998;5.140;2024-02-14T14:30:57;13.34;118.99
65559;DHT22;52203;51.998;5.140;2024-02-14T14:33:22;13.32;118.99
65559;DHT22;52203;51.998;5.140;2024-02-14T14:35:48;13.37;118.99
65559;DHT22;52203;51.998;5.140;2024-02-14T14:38:23;13.31;118.99
65559;DHT22;52203;51.998;5.140;2024-02-14T14:40:48;13.26;118.99
65559;DHT22;52203;51.998;5.140;2024-02-14T14:43:14;13.16;118.99
65559;DHT22;52203;51.998;5.140;2024-02-14T14:45:44;13.15;118.99
65559;DHT22;52203;51.998;5.140;2024-02-14T14:48:10;13.20;118.99
65559;DHT22;52203;51.998;5.140;2024-02-14T14:50:35;13.29;118.99
65559;DHT22;52203;51.998;5.140;2024-02-14T14:53:02;13.44;118.99
65559;DHT22;52203;51.998;5.140;2024-02-14T14:55:39;13.41;118.99
65559;DHT22;52203;51.998;5.140;2024-02-14T14:58:13;13.45;118.99
65559;DHT22;52203;51.998;5.140;2024-02-14T15:00:38;13.45;118.99
65559;DHT22;52203;51.998;5.140;2024-02-14T15:03:07;13.41;118.99
65559;DHT22;52203;51.998;5.140;2024-02-14T15:05:32;13.44;118.99
65559;DHT22;52203;51.998;5.140;2024-02-14T15:07:58;13.44;118.99
65559;DHT22;52203;51.998;5.140;2024-02-14T15:10:23;13.44;118.99
65559;DHT22;52203;51.998;5.140;2024-02-14T15:12:49;13.44;118.99